Weather observations for the past three days for
Warrenton-Fauquier Airport
Imperial (Metric)
Date Time (edt) Wind (mph) Vis. (mi.) Weather Sky Cond. Temperature (ºF) Relative Humidity Wind Chill (°F) Heat Index (°F) Pressure Precipitation (in)
Air Dwpt 6 hour altimeter (in) sea level (mb) 1 hr 3 hr 6 hr
Max. Min.
05 23:15 S 9 10.00 NULL NULL 72 44.6 38% 29.85 0.0
05 22:55 S 8 10.00 NULL NULL 71.8 43.7 37% 29.86 0.0
05 22:35 S 7 10.00 NULL NULL 71.8 42.4 35% 29.86 0.0
05 22:15 S 6 10.00 NULL NULL 72.7 41 32% 29.86 0.0
05 21:55 S 7 10.00 NULL NULL 72.5 40.5 31% 29.86 0.0
05 21:35 S 8 10.00 NULL NULL 73.4 39.7 30% 29.86 0.0
05 21:15 S 6 10.00 NULL NULL 73.9 38.1 27% 29.85 0.0
05 20:55 S 8 10.00 NULL NULL 75.4 36.5 24% 77 29.84 0.0
05 20:35 S 10 10.00 NULL NULL 76.5 35.6 23% 77 29.84 0.0
05 20:15 S 7 10.00 NULL NULL 76.5 36 23% 77 29.83 0.0
05 19:55 S 6 10.00 NULL NULL 77.2 34.9 85.5 77.2 22% 77 29.82 0.0
05 19:35 S 9 G 16 10.00 NULL NULL 78.1 33.8 20% 77 29.82 0.0
05 19:15 S 10 G 22 10.00 NULL NULL 80.1 32.5 18% 79 29.82 0.0
05 18:55 S 12 G 23 10.00 NULL NULL 81.5 30 15% 79 29.83 0.0
05 18:35 S 14 G 23 10.00 NULL NULL 81.5 29.5 15% 79 29.83 0.0
05 18:15 S 7 G 23 10.00 NULL NULL 81.5 32.7 17% 79 29.82 0.0
05 17:55 S 13 G 22 10.00 NULL NULL 81.9 29.5 15% 80 29.82 0.0
05 17:35 SW 18 G 29 10.00 NULL NULL 81.5 29.1 15% 79 29.82 0.0
05 17:15 S 18 G 30 10.00 NULL NULL 83.1 29.3 14% 80 29.82 0.0
05 16:55 S 13 G 26 10.00 NULL NULL 83.1 32.2 16% 80 29.81 0.0
05 16:35 S 14 G 25 10.00 NULL NULL 83.5 32.5 16% 81 29.82 0.0
05 16:15 SW 21 G 26 10.00 Breezy NULL 84.2 33.8 16% 81 29.82 0.0
05 15:55 SW 14 G 24 10.00 NULL NULL 85.1 31.3 14% 82 29.82 0.0
05 15:35 SW 14 G 25 10.00 NULL NULL 84.2 33.4 16% 81 29.82 0.0
05 15:15 S 16 G 25 10.00 NULL NULL 85.1 31.1 14% 82 29.83 0.0
05 14:55 SW 16 G 25 10.00 NULL NULL 85.1 31.8 15% 82 29.84 0.0
05 14:35 S 20 G 28 10.00 NULL NULL 85.1 34.7 16% 82 29.86 0.0
05 14:15 SW 17 G 28 10.00 NULL NULL 84.4 33.6 16% 81 29.86 0.0
05 13:55 S 14 G 23 10.00 NULL NULL 83.8 35.2 84.2 64.4 18% 81 29.86 0.0
05 13:35 S 12 G 18 10.00 NULL NULL 83.7 38.7 20% 81 29.87 0.0
05 13:15 S 17 G 25 10.00 NULL NULL 83.1 38.3 20% 81 29.87 0.0
05 12:55 SW 15 G 21 10.00 NULL NULL 82.2 41 23% 80 29.88 0.0
05 12:35 S 13 G 21 10.00 NULL NULL 81.5 41.7 24% 80 29.89 0.0
05 12:15 S 14 G 24 10.00 NULL NULL 80.6 41.4 25% 79 29.9 0.0
05 11:55 S 10 G 22 10.00 NULL NULL 80.6 42.6 26% 79 29.91 0.0
05 11:35 SW 13 G 22 10.00 NULL NULL 79.5 41 25% 79 29.91 0.0
05 11:15 SW 15 G 20 10.00 NULL NULL 79.2 43.3 28% 79 29.91 0.0
05 10:55 S 10 G 17 10.00 NULL NULL 78.1 43.2 29% 78 29.91 0.0
05 10:35 S 10 G 16 10.00 NULL NULL 77 43.7 31% 78 29.91 0.0
05 10:15 S 8 10.00 NULL NULL 75.6 43.2 31% 77 29.91 0.0
05 09:55 S 7 10.00 NULL NULL 73.8 44.4 35% 29.91 0.0
05 09:35 SW 7 10.00 NULL NULL 70.9 43 37% 29.92 0.0
05 09:15 S 8 10.00 NULL NULL 69.6 43.3 39% 29.91 0.0
05 08:55 S 8 10.00 Fair CLR 67.6 43 41% 29.92 0.0
05 08:35 SW 8 10.00 Fair CLR 66 43 43% 29.92 0.0
05 08:15 SW 7 10.00 Fair CLR 64.8 41.9 43% 29.92 0.0
05 07:55 SW 7 10.00 Fair CLR 64.2 41.7 64.2 48.2 44% 29.92 0.0
05 07:35 SW 6 10.00 Fair CLR 62.8 41.9 47% 29.91 0.0
05 07:15 SW 5 10.00 NULL NULL 62.2 41.5 47% 29.91 0.0
05 06:55 S 6 10.00 Fair CLR 61 41 48% 29.9 0.0
05 06:35 S 9 10.00 Fair CLR 60.8 40.6 48% 29.89 0.0
05 06:15 S 8 10.00 Fair CLR 60.3 40.5 48% 29.89 0.0
05 05:55 SW 6 10.00 Fair CLR 60.3 40.5 48% 29.89 0.0
05 05:35 SW 5 10.00 Fair CLR 60.1 40.8 49% 29.89 0.0
05 05:15 S 3 10.00 Fair CLR 59.2 41.2 51% 29.89 0.0
05 04:55 Calm 10.00 Fair CLR 59.4 41.5 52% 29.89 0.0
05 04:35 Calm 10.00 Fair CLR 60.1 41.9 51% 29.88 0.0
05 04:15 S 3 10.00 Fair CLR 59.7 42.3 53% 29.88 0.0
05 03:55 SW 5 10.00 Fair CLR 60.3 42.3 52% 29.87 0.0
05 03:35 S 6 10.00 Fair CLR 60.8 42.8 52% 29.87 0.0
05 03:15 S 7 10.00 Fair CLR 59.9 43.9 56% 29.87 0.0
05 02:55 S 3 10.00 Fair CLR 52.5 45.9 78% 29.87 0.0
05 02:35 Calm 10.00 Fair CLR 49.8 46.4 88% 29.86 0.0
05 02:15 Calm 10.00 Fair CLR 50.2 45.5 84% 29.86 0.0
05 01:35 Calm 10.00 Fair CLR 59.4 45.3 60% 29.86 0.0
05 01:15 S 3 10.00 Fair CLR 58.3 45.7 63% 29.86 0.0
05 00:55 S 3 10.00 Fair CLR 52.2 47.5 84% 29.86 0.0
05 00:35 Calm 10.00 Fair CLR 51.6 45.1 79% 29.86 0.0
05 00:15 Calm 10.00 Fair CLR 53.1 45.1 75% 29.86 0.0
04 23:55 Calm 10.00 NULL NULL 52.7 44.2 73% 29.86 0.0
04 23:35 Calm 10.00 NULL NULL 57 45.1 65% 29.87 0.0
04 23:15 Calm 10.00 Fair CLR 59 44.6 59% 29.87 0.0
04 22:55 Calm 10.00 NULL NULL 61.2 43.9 53% 29.87 0.0
04 22:35 S 3 10.00 NULL NULL 64.4 43.9 47% 29.87 0.0
04 22:15 SW 5 10.00 NULL NULL 66 43.7 45% 29.87 0.0
04 21:55 SW 3 10.00 NULL NULL 65.8 43.3 44% 29.87 0.0
04 21:35 SW 5 10.00 NULL NULL 68 42.8 40% 29.86 0.0
04 20:55 S 7 10.00 NULL NULL 69.8 39.4 33% 29.85 0.0
04 20:35 S 5 10.00 NULL NULL 71.4 38.7 30% 29.85 0.0
04 19:55 S 6 10.00 NULL NULL 72.9 38.3 79.3 72.9 29% 29.84 0.0
04 19:35 SW 6 10.00 NULL NULL 73.4 37.9 28% 29.84 0.0
04 19:15 S 6 10.00 NULL NULL 73.8 37.9 27% 29.84 0.0
04 18:55 S 8 10.00 NULL NULL 75 37.6 26% 77 29.83 0.0
04 18:35 S 8 10.00 NULL NULL 76.1 36.9 24% 77 29.83 0.0
04 18:15 S 9 G 20 10.00 NULL NULL 76.3 36.1 23% 77 29.83 0.0
04 17:55 S 13 G 23 10.00 NULL NULL 77 36 23% 77 29.83 0.0
04 17:35 S 13 G 21 10.00 NULL NULL 77.2 35.6 22% 77 29.83 0.0
04 17:15 SW 16 G 21 10.00 NULL NULL 78.1 36.1 22% 78 29.83 0.0
04 16:55 S 10 G 18 10.00 NULL NULL 78.1 35.4 21% 78 29.83 0.0
04 16:35 S 12 G 20 10.00 NULL NULL 77.7 34.5 21% 77 29.84 0.0
04 16:15 SW 12 G 18 10.00 NULL NULL 78.8 34.3 20% 78 29.84 0.0
04 15:55 S 13 G 20 10.00 NULL NULL 77 33.4 20% 77 29.84 0.0
04 15:35 S 10 G 23 10.00 NULL NULL 78.4 32.5 19% 78 29.85 0.0
04 15:15 SW 9 G 17 10.00 NULL NULL 78.4 32.4 19% 78 29.85 0.0
04 14:55 SW 9 G 21 10.00 NULL NULL 77.9 32.2 19% 77 29.86 0.0
04 14:35 SW 10 G 16 10.00 NULL NULL 77.7 32.5 19% 77 29.87 0.0
04 14:15 SW 7 G 17 10.00 NULL NULL 77.4 32.7 20% 77 29.89 0.0
04 13:55 SW 6 G 9 10.00 NULL NULL 76.6 32.4 76.6 52.2 20% 77 29.89 0.0
04 13:35 S 7 G 17 10.00 NULL NULL 76.1 32.2 20% 76 29.9 0.0
04 13:15 S 10 G 18 10.00 NULL NULL 75.9 32.9 21% 76 29.91 0.0
04 12:55 S 8 10.00 NULL NULL 74.8 33.3 22% 29.92 0.0
04 12:35 S 8 10.00 NULL NULL 72.7 31.8 22% 29.92 0.0
04 12:15 S 14 G 17 10.00 NULL NULL 74.1 32.9 22% 29.93 0.0
04 11:55 SW 8 10.00 NULL NULL 72.1 32.4 23% 29.94 0.0
04 11:35 SW 12 10.00 NULL NULL 71.4 32.5 24% 29.95 0.0
04 11:15 S 12 G 18 10.00 NULL NULL 70 32.5 25% 29.95 0.0
04 10:55 SW 7 10.00 Fair CLR 68.9 33.1 27% 29.96 0.0
04 10:35 SW 7 10.00 Fair CLR 67.5 33.6 29% 29.96 0.0
04 10:15 SW 8 10.00 Fair CLR 65.5 32.9 30% 29.96 0.0
04 09:55 S 7 10.00 Fair CLR 63.7 34.7 34% 29.97 0.0
04 09:35 SW 7 10.00 Fair CLR 61.5 35.6 38% 29.97 0.0
04 09:15 S 6 10.00 Fair CLR 59.2 36 42% 29.97 0.0
04 08:55 S 7 10.00 Fair CLR 58.1 36.7 45% 29.98 0.0
04 08:35 SW 5 10.00 Fair CLR 55.6 35.8 48% 29.98 0.0
04 08:15 S 3 10.00 Fair CLR 53.8 35.4 50% 29.99 0.0
04 07:55 SW 5 10.00 Partly Cloudy SCT095 52 36.5 52 43.2 56% 29.99 0.0
04 07:35 SW 3 10.00 Fair CLR 49.3 37.8 65% 29.99 0.0
04 07:15 Calm 10.00 Partly Cloudy SCT090 47.3 38.1 71% 29.99 0.0
04 06:55 SW 3 10.00 Mostly Cloudy BKN090 43.9 39.4 84% 29.99 0.0
04 06:35 Calm 10.00 Partly Cloudy SCT100 43.2 37.2 80% 29.99 0.0
04 06:15 Calm 10.00 Overcast OVC100 43.7 37.2 78% 29.98 0.0
04 05:55 Calm 10.00 Overcast OVC100 46 36.7 70% 29.98 0.0
04 05:35 NW 5 10.00 Overcast OVC110 46.8 36 66% 45 29.99 0.0
04 05:15 Calm 10.00 Mostly Cloudy BKN110 45.5 37.6 74% 29.99 0.0
04 04:55 Calm 10.00 Overcast BKN100 OVC120 46.4 37.4 71% 29.99 0.0
04 04:35 Calm 10.00 Overcast OVC100 46 40.3 80% 29.99 0.0
04 04:15 Calm 10.00 Overcast OVC100 45.7 40.3 82% 29.99 0.0
04 03:55 Calm 10.00 Overcast OVC100 45.5 40.1 81% 30 0.0
04 03:35 Calm 10.00 Overcast OVC100 45.7 39.9 80% 29.99 0.0
04 03:15 Calm 10.00 Overcast OVC100 45 39.7 82% 29.99 0.0
04 02:55 Calm 10.00 Overcast OVC110 45.3 40.1 82% 30 0.0
04 02:35 Calm 10.00 Overcast OVC110 45.5 38.7 77% 30 0.0
04 02:15 Calm 10.00 Overcast OVC110 45.5 39.6 80% 30 0.0
04 01:55 Calm 10.00 Overcast OVC110 45.3 39.2 53.4 36.3 79% 30 0.0
04 01:35 Calm 10.00 Overcast OVC110 44.8 37.4 75% 30 0.0
04 01:15 Calm 10.00 Mostly Cloudy BKN120 44.6 39.2 81% 30.01 0.0
04 00:55 Calm 10.00 Overcast OVC120 43.7 38.1 81% 30 0.0
04 00:35 Calm 10.00 Mostly Cloudy BKN120 43.3 36.3 76% 30 0.0
04 00:15 Calm 10.00 Fair CLR 41.9 35.8 79% 30 0.0
03 23:55 Calm 10.00 Fair CLR 40.8 36.1 83% 30 0.0
03 23:35 Calm 10.00 Fair CLR 37.6 32.5 82% 30 0.0
03 23:15 Calm 10.00 Fair CLR 37 31.1 79% 30 0.0
03 22:55 Calm 10.00 Fair CLR 37.6 32 80% 30 0.0
03 22:35 Calm 10.00 Fair CLR 38.5 31.6 76% 29.99 0.0
03 22:15 Calm 10.00 Fair CLR 40.5 32.4 73% 29.99 0.0
03 21:55 Calm 10.00 Fair CLR 40.5 32 72% 29.99 0.0
03 21:35 Calm 10.00 Fair CLR 40.5 32 72% 29.99 0.0
03 21:15 Calm 10.00 Fair CLR 45.1 31.6 59% 29.98 0.0
03 20:55 Calm 10.00 Fair CLR 47.7 30.4 51% 29.97 0.0
03 20:35 E 5 10.00 Fair CLR 48.9 29.7 48% 48 29.97 0.0
03 20:15 SE 3 10.00 NULL NULL 53.2 26.6 36% 29.97 0.0
03 19:55 Calm 10.00 NULL NULL 54.3 28.9 65.7 54.3 38% 29.97 0.0
03 19:35 Calm 10.00 Fair CLR 59.7 25.9 27% 29.96 0.0
03 19:15 Calm 10.00 NULL NULL 63.5 16 16% 29.96 0.0
03 18:55 SW 5 10.00 NULL NULL 63.5 17.6 17% 29.96 0.0
03 18:35 SW 6 10.00 NULL NULL 64.6 13.5 14% 29.96 0.0
03 18:15 W 3 10.00 NULL NULL 64.9 14.9 14% 29.96 0.0
03 17:55 W 6 10.00 Fair CLR 65.3 15.6 14% 29.96 0.0
03 17:35 W 3 10.00 Fair CLR 65.3 16.2 15% 29.96 0.0
03 17:15 W 5 10.00 NULL NULL 65.7 17.1 15% 29.97 0.0
03 16:55 W 5 10.00 Fair CLR 64.2 14.5 14% 29.97 0.0
03 16:35 W 8 10.00 Fair CLR 64.4 16.9 16% 29.97 0.0
03 16:15 W 7 10.00 Fair CLR 65.1 19.2 17% 29.98 0.0
03 15:55 W 10 G 17 10.00 Partly Cloudy SCT080 63.7 18 17% 29.99 0.0
03 14:55 W 8 10.00 Mostly Cloudy BKN075 64.4 20.5 18% 30.02 0.0
03 14:35 SW 5 10.00 Partly Cloudy SCT075 63.5 19.9 19% 30.02 0.0
03 14:15 SW 5 10.00 Partly Cloudy SCT070 63.5 21 20% 30.02 0.0
03 13:55 SW 8 10.00 Partly Cloudy SCT070 62.2 20.8 62.2 47.5 20% 30.03 0.0
03 13:35 W 7 10.00 Partly Cloudy SCT070 61 20.1 21% 30.03 0.0
03 13:15 NW 6 10.00 Mostly Cloudy BKN070 58.3 18.7 21% 30.04 0.0
03 12:55 W 5 10.00 Partly Cloudy SCT070 57 17.2 21% 30.05 0.0
03 12:35 NW 13 G 21 10.00 Fair CLR 58.5 19.6 22% 30.05 0.0
03 12:15 NW 10 G 21 10.00 Partly Cloudy SCT060 58.8 20.3 22% 30.06 0.0
03 11:55 W 13 G 17 10.00 Partly Cloudy SCT060 57.7 21.2 24% 30.06 0.0
03 11:35 W 7 G 21 10.00 Partly Cloudy SCT060 55.9 20.5 25% 30.07 0.0
03 11:15 NW 9 G 20 10.00 Partly Cloudy SCT055 54.1 19.9 26% 30.07 0.0
03 10:55 NW 13 10.00 Partly Cloudy SCT055 55.4 22.5 28% 30.07 0.0
03 10:35 NW 10 G 18 10.00 Fair CLR 54.5 22.5 29% 30.07 0.0
03 10:15 NW 14 G 18 10.00 Fair CLR 50.9 22.1 32% 30.08 0.0
03 09:55 NW 13 G 21 10.00 Fair CLR 50.2 23.4 35% 30.07 0.0
03 09:35 NW 10 G 16 10.00 Fair CLR 50.7 23.5 35% 30.07 0.0
03 09:15 NW 12 G 17 10.00 Fair CLR 50.5 24.1 36% 30.08 0.0
03 08:55 NW 12 G 18 10.00 Fair CLR 49.8 25.7 39% 46 30.08 0.0
03 08:35 NW 9 10.00 Fair CLR 49.3 27.9 44% 46 30.08 0.0
03 08:15 W 7 10.00 Fair CLR 48.2 28.4 46% 46 30.07 0.0
03 07:55 NW 3 10.00 Fair CLR 47.3 29.7 47.3 35.8 50% 30.07 0.0
03 07:35 W 3 10.00 Fair CLR 46.2 30.6 55% 30.06 0.0
03 07:15 NW 3 10.00 Fair CLR 44.2 30.4 58% 30.05 0.0
03 06:55 NW 3 10.00 Fair CLR 42.3 29.3 60% 30.04 0.0
03 06:35 NW 3 10.00 Fair CLR 40.3 28.4 63% 30.02 0.0
03 06:15 NW 5 10.00 Mostly Cloudy BKN080 41.4 28.4 60% 39 30.02 0.0
03 05:55 NW 7 10.00 Mostly Cloudy BKN080 41 29.3 63% 37 30.01 0.0
03 05:35 NW 6 10.00 Partly Cloudy SCT080 40.1 28.9 64% 37 30.01 0.0
03 05:15 NW 7 10.00 Partly Cloudy SCT080 42.1 29.1 60% 38 30 0.0
03 04:55 NW 8 10.00 Fair CLR 40.8 29.3 64% 36 30 0.0
03 04:35 N 6 10.00 Fair CLR 38.7 29.1 69% 35 29.99 0.0
03 04:15 NW 6 10.00 Partly Cloudy SCT085 37 28.2 70% 33 29.99 0.0
03 03:55 N 3 10.00 Partly Cloudy SCT085 38.3 27.9 66% 29.99 0.0
03 03:35 NW 3 10.00 Fair CLR 37.2 29.3 73% 29.99 0.0
03 03:15 Calm 10.00 Partly Cloudy SCT090 36 28.9 76% 29.98 0.0
03 02:55 Calm 10.00 Fair CLR 38.3 29.3 70% 29.98 0.0
03 02:35 NW 5 10.00 Fair CLR 40.5 28.4 62% 38 29.97 0.0
03 02:15 NW 5 10.00 Partly Cloudy SCT100 44.2 27.9 53% 42 29.97 0.0
03 01:55 NW 7 10.00 Overcast OVC100 46.4 27.9 56.1 46.4 49% 43 29.97 0.0
03 01:35 NW 8 10.00 Overcast OVC100 47.3 28 47% 44 29.97 0.0
03 01:15 NW 8 10.00 Overcast OVC100 48.2 28.2 46% 45 29.97 0.0
03 00:55 N 8 10.00 Overcast OVC100 48.2 28.6 47% 45 29.97 0.0
03 00:35 N 8 10.00 Overcast OVC100 49.1 28.4 45% 46 29.97 0.0
03 00:15 N 8 10.00 Overcast OVC100 50 28.2 43% 47 29.97 0.0
02 23:55 N 13 G 18 10.00 Overcast SCT080 OVC100 50.5 28 42% 29.97 0.0
Date Time (edt) Wind (mph) Vis. (mi.) Weather Sky Cond. Air Dwpt Max. Min. Relative Humidity Wind Chill (°F) Heat Index (°F) altimeter (in) sea level (mb) 1 hr 3 hr 6 hr
6 hour
Temperature (ºF) Pressure Precipitation (in)